sensor_id;sensor_type;location;lat;lon;timestamp;P1;durP1;ratioP1;P2;durP2;ratioP2
21168;SDS011;10742;51.816;8.662;2024-03-08T00:02:48;31.77;;;13.67;;
21168;SDS011;10742;51.816;8.662;2024-03-08T00:06:11;31.03;;;13.00;;
21168;SDS011;10742;51.816;8.662;2024-03-08T00:09:32;33.57;;;13.37;;
21168;SDS011;10742;51.816;8.662;2024-03-08T00:12:54;32.10;;;13.60;;
21168;SDS011;10742;51.816;8.662;2024-03-08T00:16:17;33.00;;;13.53;;
21168;SDS011;10742;51.816;8.662;2024-03-08T00:19:40;30.50;;;13.43;;
21168;SDS011;10742;51.816;8.662;2024-03-08T00:23:02;31.47;;;13.83;;
21168;SDS011;10742;51.816;8.662;2024-03-08T00:26:23;31.60;;;13.73;;
21168;SDS011;10742;51.816;8.662;2024-03-08T00:29:45;29.33;;;13.77;;
21168;SDS011;10742;51.816;8.662;2024-03-08T00:33:07;31.10;;;13.67;;
21168;SDS011;10742;51.816;8.662;2024-03-08T00:36:29;31.63;;;13.50;;
21168;SDS011;10742;51.816;8.662;2024-03-08T00:39:51;28.27;;;13.83;;
21168;SDS011;10742;51.816;8.662;2024-03-08T00:43:12;32.67;;;14.23;;
21168;SDS011;10742;51.816;8.662;2024-03-08T00:46:34;29.47;;;13.73;;
21168;SDS011;10742;51.816;8.662;2024-03-08T00:49:55;31.97;;;14.43;;
21168;SDS011;10742;51.816;8.662;2024-03-08T00:53:17;30.97;;;13.53;;
21168;SDS011;10742;51.816;8.662;2024-03-08T00:56:39;31.40;;;13.43;;
21168;SDS011;10742;51.816;8.662;2024-03-08T01:00:00;31.37;;;14.23;;
21168;SDS011;10742;51.816;8.662;2024-03-08T01:03:24;34.17;;;14.97;;
21168;SDS011;10742;51.816;8.662;2024-03-08T01:06:45;32.93;;;14.40;;
21168;SDS011;10742;51.816;8.662;2024-03-08T01:10:07;33.83;;;14.67;;
21168;SDS011;10742;51.816;8.662;2024-03-08T01:13:32;32.77;;;14.40;;
21168;SDS011;10742;51.816;8.662;2024-03-08T01:16:53;33.13;;;14.27;;
21168;SDS011;10742;51.816;8.662;2024-03-08T01:20:15;31.83;;;14.50;;
21168;SDS011;10742;51.816;8.662;2024-03-08T01:23:36;31.63;;;13.83;;
21168;SDS011;10742;51.816;8.662;2024-03-08T01:26:58;32.33;;;14.47;;
21168;SDS011;10742;51.816;8.662;2024-03-08T01:30:19;33.33;;;14.73;;
21168;SDS011;10742;51.816;8.662;2024-03-08T01:33:40;35.13;;;14.70;;
21168;SDS011;10742;51.816;8.662;2024-03-08T01:37:01;32.07;;;14.30;;
21168;SDS011;10742;51.816;8.662;2024-03-08T01:40:23;32.70;;;14.50;;
21168;SDS011;10742;51.816;8.662;2024-03-08T01:43:44;30.67;;;14.67;;
21168;SDS011;10742;51.816;8.662;2024-03-08T01:47:05;32.67;;;14.50;;
21168;SDS011;10742;51.816;8.662;2024-03-08T01:50:27;33.00;;;15.27;;
21168;SDS011;10742;51.816;8.662;2024-03-08T01:53:48;31.07;;;14.87;;
21168;SDS011;10742;51.816;8.662;2024-03-08T01:57:09;35.80;;;14.97;;
21168;SDS011;10742;51.816;8.662;2024-03-08T02:00:32;29.93;;;13.83;;
21168;SDS011;10742;51.816;8.662;2024-03-08T02:03:55;33.00;;;14.93;;
21168;SDS011;10742;51.816;8.662;2024-03-08T02:07:16;32.30;;;14.47;;
21168;SDS011;10742;51.816;8.662;2024-03-08T02:10:41;30.33;;;14.37;;
21168;SDS011;10742;51.816;8.662;2024-03-08T02:14:02;32.57;;;13.93;;
21168;SDS011;10742;51.816;8.662;2024-03-08T02:17:27;31.63;;;13.30;;
21168;SDS011;10742;51.816;8.662;2024-03-08T02:20:58;31.53;;;14.03;;
21168;SDS011;10742;51.816;8.662;2024-03-08T02:24:20;32.13;;;13.57;;
21168;SDS011;10742;51.816;8.662;2024-03-08T02:27:42;32.60;;;14.73;;
21168;SDS011;10742;51.816;8.662;2024-03-08T02:31:04;30.97;;;13.13;;
21168;SDS011;10742;51.816;8.662;2024-03-08T02:34:28;33.37;;;14.30;;
21168;SDS011;10742;51.816;8.662;2024-03-08T02:37:52;36.23;;;15.27;;
21168;SDS011;10742;51.816;8.662;2024-03-08T02:41:14;31.20;;;14.47;;
21168;SDS011;10742;51.816;8.662;2024-03-08T02:44:35;31.93;;;14.47;;
21168;SDS011;10742;51.816;8.662;2024-03-08T02:47:56;33.93;;;14.97;;
21168;SDS011;10742;51.816;8.662;2024-03-08T02:51:18;33.47;;;14.47;;
21168;SDS011;10742;51.816;8.662;2024-03-08T02:54:41;35.37;;;16.00;;
21168;SDS011;10742;51.816;8.662;2024-03-08T02:58:03;30.80;;;14.80;;
21168;SDS011;10742;51.816;8.662;2024-03-08T03:01:25;33.93;;;14.80;;
21168;SDS011;10742;51.816;8.662;2024-03-08T03:04:48;41.00;;;16.20;;
21168;SDS011;10742;51.816;8.662;2024-03-08T03:08:10;33.67;;;15.33;;
21168;SDS011;10742;51.816;8.662;2024-03-08T03:11:32;35.73;;;16.50;;
21168;SDS011;10742;51.816;8.662;2024-03-08T03:14:56;34.50;;;16.93;;
21168;SDS011;10742;51.816;8.662;2024-03-08T03:18:18;35.80;;;15.73;;
21168;SDS011;10742;51.816;8.662;2024-03-08T03:21:42;35.33;;;16.23;;
21168;SDS011;10742;51.816;8.662;2024-03-08T03:25:04;35.90;;;15.57;;
21168;SDS011;10742;51.816;8.662;2024-03-08T03:28:27;36.57;;;16.20;;
21168;SDS011;10742;51.816;8.662;2024-03-08T03:31:49;35.30;;;16.50;;
21168;SDS011;10742;51.816;8.662;2024-03-08T03:35:11;36.70;;;16.87;;
21168;SDS011;10742;51.816;8.662;2024-03-08T03:38:32;36.63;;;16.33;;
21168;SDS011;10742;51.816;8.662;2024-03-08T03:41:55;36.30;;;16.60;;
21168;SDS011;10742;51.816;8.662;2024-03-08T03:45:17;37.70;;;17.03;;
21168;SDS011;10742;51.816;8.662;2024-03-08T03:48:40;35.87;;;15.87;;
21168;SDS011;10742;51.816;8.662;2024-03-08T03:52:03;35.03;;;16.83;;
21168;SDS011;10742;51.816;8.662;2024-03-08T03:55:25;38.50;;;17.00;;
21168;SDS011;10742;51.816;8.662;2024-03-08T03:58:48;36.33;;;16.67;;
21168;SDS011;10742;51.816;8.662;2024-03-08T04:02:10;35.87;;;16.27;;
21168;SDS011;10742;51.816;8.662;2024-03-08T04:05:32;36.70;;;16.20;;
21168;SDS011;10742;51.816;8.662;2024-03-08T04:08:54;39.77;;;17.37;;
21168;SDS011;10742;51.816;8.662;2024-03-08T04:12:16;36.67;;;16.43;;
21168;SDS011;10742;51.816;8.662;2024-03-08T04:15:38;40.70;;;17.67;;
21168;SDS011;10742;51.816;8.662;2024-03-08T04:19:00;34.50;;;15.73;;
21168;SDS011;10742;51.816;8.662;2024-03-08T04:22:24;38.57;;;17.03;;
21168;SDS011;10742;51.816;8.662;2024-03-08T04:25:46;36.80;;;16.73;;
21168;SDS011;10742;51.816;8.662;2024-03-08T04:29:08;38.67;;;16.43;;
21168;SDS011;10742;51.816;8.662;2024-03-08T04:32:29;39.60;;;17.23;;
21168;SDS011;10742;51.816;8.662;2024-03-08T04:35:52;38.00;;;16.13;;
21168;SDS011;10742;51.816;8.662;2024-03-08T04:39:13;39.93;;;17.47;;
21168;SDS011;10742;51.816;8.662;2024-03-08T04:42:35;39.03;;;16.60;;
21168;SDS011;10742;51.816;8.662;2024-03-08T04:45:58;36.90;;;16.03;;
21168;SDS011;10742;51.816;8.662;2024-03-08T04:49:19;36.60;;;16.73;;
21168;SDS011;10742;51.816;8.662;2024-03-08T04:52:42;38.40;;;17.57;;
21168;SDS011;10742;51.816;8.662;2024-03-08T04:56:03;34.33;;;16.27;;
21168;SDS011;10742;51.816;8.662;2024-03-08T04:59:27;37.03;;;15.93;;
21168;SDS011;10742;51.816;8.662;2024-03-08T05:02:48;40.97;;;17.60;;
21168;SDS011;10742;51.816;8.662;2024-03-08T05:06:14;39.73;;;17.00;;
21168;SDS011;10742;51.816;8.662;2024-03-08T05:09:35;37.07;;;17.77;;
21168;SDS011;10742;51.816;8.662;2024-03-08T05:12:57;37.20;;;17.07;;
21168;SDS011;10742;51.816;8.662;2024-03-08T05:16:18;37.10;;;17.67;;
21168;SDS011;10742;51.816;8.662;2024-03-08T05:19:42;37.97;;;16.40;;
21168;SDS011;10742;51.816;8.662;2024-03-08T05:23:04;38.50;;;17.23;;
21168;SDS011;10742;51.816;8.662;2024-03-08T05:26:26;41.37;;;18.20;;
21168;SDS011;10742;51.816;8.662;2024-03-08T05:29:47;39.33;;;17.07;;
21168;SDS011;10742;51.816;8.662;2024-03-08T05:33:09;36.87;;;16.77;;
21168;SDS011;10742;51.816;8.662;2024-03-08T05:36:35;37.20;;;17.70;;
21168;SDS011;10742;51.816;8.662;2024-03-08T05:39:57;36.40;;;16.33;;
21168;SDS011;10742;51.816;8.662;2024-03-08T05:43:18;39.97;;;17.90;;
21168;SDS011;10742;51.816;8.662;2024-03-08T05:46:40;42.40;;;17.83;;
21168;SDS011;10742;51.816;8.662;2024-03-08T05:50:02;37.20;;;17.17;;
21168;SDS011;10742;51.816;8.662;2024-03-08T05:53:25;39.50;;;17.20;;
21168;SDS011;10742;51.816;8.662;2024-03-08T05:56:47;37.00;;;17.07;;
21168;SDS011;10742;51.816;8.662;2024-03-08T06:00:09;36.70;;;16.37;;
21168;SDS011;10742;51.816;8.662;2024-03-08T06:03:34;39.63;;;17.00;;
21168;SDS011;10742;51.816;8.662;2024-03-08T06:06:59;38.50;;;16.93;;
21168;SDS011;10742;51.816;8.662;2024-03-08T06:10:21;39.57;;;16.77;;
21168;SDS011;10742;51.816;8.662;2024-03-08T06:13:44;40.80;;;17.87;;
21168;SDS011;10742;51.816;8.662;2024-03-08T06:17:07;39.30;;;17.47;;
21168;SDS011;10742;51.816;8.662;2024-03-08T06:20:29;42.00;;;17.67;;
21168;SDS011;10742;51.816;8.662;2024-03-08T06:23:50;39.00;;;16.63;;
21168;SDS011;10742;51.816;8.662;2024-03-08T06:27:12;39.00;;;17.20;;
21168;SDS011;10742;51.816;8.662;2024-03-08T06:30:35;35.30;;;16.57;;
21168;SDS011;10742;51.816;8.662;2024-03-08T06:33:58;37.37;;;17.43;;
21168;SDS011;10742;51.816;8.662;2024-03-08T06:37:20;42.37;;;16.37;;
21168;SDS011;10742;51.816;8.662;2024-03-08T06:40:42;41.20;;;18.13;;
21168;SDS011;10742;51.816;8.662;2024-03-08T06:44:04;38.40;;;17.20;;
21168;SDS011;10742;51.816;8.662;2024-03-08T06:47:31;43.57;;;18.07;;
21168;SDS011;10742;51.816;8.662;2024-03-08T06:50:57;37.40;;;16.97;;
21168;SDS011;10742;51.816;8.662;2024-03-08T06:54:21;40.77;;;17.17;;
21168;SDS011;10742;51.816;8.662;2024-03-08T06:57:43;37.53;;;18.23;;
21168;SDS011;10742;51.816;8.662;2024-03-08T07:01:06;35.13;;;17.47;;
21168;SDS011;10742;51.816;8.662;2024-03-08T07:04:29;40.97;;;18.67;;
21168;SDS011;10742;51.816;8.662;2024-03-08T07:07:53;39.80;;;18.43;;
21168;SDS011;10742;51.816;8.662;2024-03-08T07:11:15;39.90;;;18.27;;
21168;SDS011;10742;51.816;8.662;2024-03-08T07:14:39;41.17;;;17.87;;
21168;SDS011;10742;51.816;8.662;2024-03-08T07:18:06;37.57;;;18.17;;
21168;SDS011;10742;51.816;8.662;2024-03-08T07:21:30;36.50;;;17.60;;
21168;SDS011;10742;51.816;8.662;2024-03-08T07:24:53;40.20;;;18.17;;
21168;SDS011;10742;51.816;8.662;2024-03-08T07:28:37;36.77;;;19.13;;
21168;SDS011;10742;51.816;8.662;2024-03-08T07:31:58;38.60;;;19.20;;
21168;SDS011;10742;51.816;8.662;2024-03-08T07:35:39;38.73;;;18.33;;
21168;SDS011;10742;51.816;8.662;2024-03-08T07:39:01;42.73;;;19.07;;
21168;SDS011;10742;51.816;8.662;2024-03-08T07:42:25;39.57;;;19.27;;
21168;SDS011;10742;51.816;8.662;2024-03-08T07:45:46;43.33;;;18.63;;
21168;SDS011;10742;51.816;8.662;2024-03-08T07:49:08;39.23;;;18.30;;
21168;SDS011;10742;51.816;8.662;2024-03-08T07:52:32;38.20;;;18.07;;
21168;SDS011;10742;51.816;8.662;2024-03-08T07:55:54;37.20;;;17.67;;
21168;SDS011;10742;51.816;8.662;2024-03-08T07:59:15;38.87;;;18.87;;
21168;SDS011;10742;51.816;8.662;2024-03-08T08:02:36;36.83;;;17.83;;
21168;SDS011;10742;51.816;8.662;2024-03-08T08:05:58;37.27;;;18.10;;
21168;SDS011;10742;51.816;8.662;2024-03-08T08:09:20;38.00;;;18.23;;
21168;SDS011;10742;51.816;8.662;2024-03-08T08:12:49;36.30;;;16.93;;
21168;SDS011;10742;51.816;8.662;2024-03-08T08:16:10;38.20;;;18.60;;
21168;SDS011;10742;51.816;8.662;2024-03-08T08:19:32;37.67;;;18.07;;
21168;SDS011;10742;51.816;8.662;2024-03-08T08:22:54;36.07;;;16.97;;
21168;SDS011;10742;51.816;8.662;2024-03-08T08:26:16;36.27;;;17.47;;
21168;SDS011;10742;51.816;8.662;2024-03-08T08:29:37;37.63;;;17.97;;
21168;SDS011;10742;51.816;8.662;2024-03-08T08:32:59;37.40;;;17.87;;
21168;SDS011;10742;51.816;8.662;2024-03-08T08:36:21;36.63;;;17.37;;
21168;SDS011;10742;51.816;8.662;2024-03-08T08:39:43;36.57;;;17.97;;
21168;SDS011;10742;51.816;8.662;2024-03-08T08:43:05;34.43;;;17.63;;
21168;SDS011;10742;51.816;8.662;2024-03-08T08:46:26;36.10;;;16.97;;
21168;SDS011;10742;51.816;8.662;2024-03-08T08:49:49;37.40;;;17.33;;
21168;SDS011;10742;51.816;8.662;2024-03-08T08:53:12;38.53;;;17.93;;
21168;SDS011;10742;51.816;8.662;2024-03-08T08:56:35;35.60;;;16.27;;
21168;SDS011;10742;51.816;8.662;2024-03-08T08:59:58;35.97;;;16.50;;
21168;SDS011;10742;51.816;8.662;2024-03-08T09:03:23;33.40;;;17.00;;
21168;SDS011;10742;51.816;8.662;2024-03-08T09:06:47;35.43;;;17.47;;
21168;SDS011;10742;51.816;8.662;2024-03-08T09:10:08;34.60;;;17.23;;
21168;SDS011;10742;51.816;8.662;2024-03-08T09:13:33;34.33;;;17.30;;
21168;SDS011;10742;51.816;8.662;2024-03-08T09:16:55;35.97;;;16.80;;
21168;SDS011;10742;51.816;8.662;2024-03-08T09:20:17;33.77;;;16.37;;
21168;SDS011;10742;51.816;8.662;2024-03-08T09:23:38;35.70;;;17.17;;
21168;SDS011;10742;51.816;8.662;2024-03-08T09:27:00;36.43;;;17.87;;
21168;SDS011;10742;51.816;8.662;2024-03-08T09:30:22;32.73;;;15.40;;
21168;SDS011;10742;51.816;8.662;2024-03-08T09:33:44;32.00;;;15.47;;
21168;SDS011;10742;51.816;8.662;2024-03-08T09:37:08;34.27;;;15.37;;
21168;SDS011;10742;51.816;8.662;2024-03-08T09:40:30;33.60;;;16.07;;
21168;SDS011;10742;51.816;8.662;2024-03-08T09:43:53;30.60;;;15.80;;
21168;SDS011;10742;51.816;8.662;2024-03-08T09:47:16;32.37;;;15.57;;
21168;SDS011;10742;51.816;8.662;2024-03-08T09:50:41;35.93;;;16.33;;
21168;SDS011;10742;51.816;8.662;2024-03-08T09:54:02;32.53;;;16.60;;
21168;SDS011;10742;51.816;8.662;2024-03-08T09:57:28;33.10;;;16.07;;
21168;SDS011;10742;51.816;8.662;2024-03-08T10:00:50;31.93;;;15.93;;
21168;SDS011;10742;51.816;8.662;2024-03-08T10:04:12;30.70;;;14.83;;
21168;SDS011;10742;51.816;8.662;2024-03-08T10:07:35;35.17;;;15.90;;
21168;SDS011;10742;51.816;8.662;2024-03-08T10:10:56;32.93;;;15.80;;
21168;SDS011;10742;51.816;8.662;2024-03-08T10:14:18;34.13;;;16.10;;
21168;SDS011;10742;51.816;8.662;2024-03-08T10:17:40;31.17;;;15.83;;
21168;SDS011;10742;51.816;8.662;2024-03-08T10:21:02;29.07;;;14.20;;
21168;SDS011;10742;51.816;8.662;2024-03-08T10:24:28;30.67;;;14.43;;
21168;SDS011;10742;51.816;8.662;2024-03-08T10:27:49;29.90;;;14.97;;
21168;SDS011;10742;51.816;8.662;2024-03-08T10:31:11;30.63;;;13.90;;
21168;SDS011;10742;51.816;8.662;2024-03-08T10:34:34;32.03;;;15.30;;
21168;SDS011;10742;51.816;8.662;2024-03-08T10:37:56;32.30;;;15.33;;
21168;SDS011;10742;51.816;8.662;2024-03-08T10:41:24;30.53;;;15.10;;
21168;SDS011;10742;51.816;8.662;2024-03-08T10:44:49;29.73;;;13.87;;
21168;SDS011;10742;51.816;8.662;2024-03-08T10:48:32;29.07;;;13.83;;
21168;SDS011;10742;51.816;8.662;2024-03-08T10:52:03;30.53;;;13.93;;
21168;SDS011;10742;51.816;8.662;2024-03-08T10:55:28;28.40;;;13.97;;
21168;SDS011;10742;51.816;8.662;2024-03-08T10:58:54;33.80;;;14.50;;
21168;SDS011;10742;51.816;8.662;2024-03-08T11:02:17;29.13;;;14.40;;
21168;SDS011;10742;51.816;8.662;2024-03-08T11:05:44;27.77;;;13.50;;
21168;SDS011;10742;51.816;8.662;2024-03-08T11:09:28;28.30;;;12.83;;
21168;SDS011;10742;51.816;8.662;2024-03-08T11:12:50;27.87;;;13.03;;
21168;SDS011;10742;51.816;8.662;2024-03-08T11:19:49;26.33;;;12.60;;
21168;SDS011;10742;51.816;8.662;2024-03-08T11:23:13;27.90;;;12.70;;
21168;SDS011;10742;51.816;8.662;2024-03-08T11:26:44;28.70;;;12.90;;
21168;SDS011;10742;51.816;8.662;2024-03-08T11:30:08;26.87;;;13.03;;
21168;SDS011;10742;51.816;8.662;2024-03-08T11:33:45;29.30;;;13.77;;
21168;SDS011;10742;51.816;8.662;2024-03-08T11:37:12;28.70;;;13.10;;
21168;SDS011;10742;51.816;8.662;2024-03-08T11:40:36;29.23;;;13.27;;
21168;SDS011;10742;51.816;8.662;2024-03-08T11:44:05;27.63;;;12.87;;
21168;SDS011;10742;51.816;8.662;2024-03-08T11:47:28;29.00;;;13.80;;
21168;SDS011;10742;51.816;8.662;2024-03-08T11:51:02;30.63;;;13.83;;
21168;SDS011;10742;51.816;8.662;2024-03-08T11:54:27;27.30;;;13.00;;
21168;SDS011;10742;51.816;8.662;2024-03-08T11:57:49;29.07;;;13.40;;
21168;SDS011;10742;51.816;8.662;2024-03-08T12:01:13;28.13;;;13.70;;
21168;SDS011;10742;51.816;8.662;2024-03-08T12:04:40;28.17;;;13.53;;
21168;SDS011;10742;51.816;8.662;2024-03-08T12:08:03;28.10;;;13.17;;
21168;SDS011;10742;51.816;8.662;2024-03-08T12:11:29;29.07;;;13.63;;
21168;SDS011;10742;51.816;8.662;2024-03-08T12:14:57;28.37;;;14.00;;
21168;SDS011;10742;51.816;8.662;2024-03-08T12:18:19;29.30;;;14.73;;
21168;SDS011;10742;51.816;8.662;2024-03-08T12:21:41;27.93;;;13.40;;
21168;SDS011;10742;51.816;8.662;2024-03-08T12:25:10;27.30;;;13.60;;
21168;SDS011;10742;51.816;8.662;2024-03-08T12:28:32;30.17;;;14.70;;
21168;SDS011;10742;51.816;8.662;2024-03-08T12:32:02;29.53;;;14.40;;
21168;SDS011;10742;51.816;8.662;2024-03-08T12:35:26;30.23;;;14.20;;
21168;SDS011;10742;51.816;8.662;2024-03-08T12:38:49;28.23;;;13.83;;
21168;SDS011;10742;51.816;8.662;2024-03-08T12:42:10;30.67;;;15.00;;
21168;SDS011;10742;51.816;8.662;2024-03-08T12:45:32;28.20;;;13.80;;
21168;SDS011;10742;51.816;8.662;2024-03-08T12:48:53;30.10;;;13.97;;
21168;SDS011;10742;51.816;8.662;2024-03-08T12:52:15;29.67;;;14.30;;
21168;SDS011;10742;51.816;8.662;2024-03-08T12:55:39;29.03;;;13.97;;
21168;SDS011;10742;51.816;8.662;2024-03-08T12:59:01;27.27;;;13.30;;
21168;SDS011;10742;51.816;8.662;2024-03-08T13:02:23;29.50;;;13.17;;
21168;SDS011;10742;51.816;8.662;2024-03-08T13:05:45;28.37;;;13.00;;
21168;SDS011;10742;51.816;8.662;2024-03-08T13:09:06;29.30;;;13.93;;
21168;SDS011;10742;51.816;8.662;2024-03-08T13:12:26;27.10;;;13.57;;
21168;SDS011;10742;51.816;8.662;2024-03-08T13:15:48;28.90;;;14.20;;
21168;SDS011;10742;51.816;8.662;2024-03-08T13:19:09;30.07;;;13.97;;
21168;SDS011;10742;51.816;8.662;2024-03-08T13:22:33;29.73;;;13.43;;
21168;SDS011;10742;51.816;8.662;2024-03-08T13:25:56;29.03;;;14.00;;
21168;SDS011;10742;51.816;8.662;2024-03-08T13:29:18;28.90;;;14.53;;
21168;SDS011;10742;51.816;8.662;2024-03-08T13:32:40;27.10;;;12.47;;
21168;SDS011;10742;51.816;8.662;2024-03-08T13:36:04;30.03;;;14.03;;
21168;SDS011;10742;51.816;8.662;2024-03-08T13:39:35;26.17;;;11.97;;
21168;SDS011;10742;51.816;8.662;2024-03-08T13:43:01;30.00;;;13.93;;
21168;SDS011;10742;51.816;8.662;2024-03-08T13:46:22;28.53;;;14.00;;
21168;SDS011;10742;51.816;8.662;2024-03-08T13:49:45;29.23;;;14.33;;
21168;SDS011;10742;51.816;8.662;2024-03-08T13:53:06;28.13;;;13.70;;
21168;SDS011;10742;51.816;8.662;2024-03-08T13:56:31;27.23;;;13.43;;
21168;SDS011;10742;51.816;8.662;2024-03-08T13:59:54;29.30;;;15.13;;
21168;SDS011;10742;51.816;8.662;2024-03-08T14:03:16;28.83;;;13.63;;
21168;SDS011;10742;51.816;8.662;2024-03-08T14:06:38;27.93;;;13.53;;
21168;SDS011;10742;51.816;8.662;2024-03-08T14:09:59;30.23;;;14.30;;
21168;SDS011;10742;51.816;8.662;2024-03-08T14:13:21;29.30;;;13.33;;
21168;SDS011;10742;51.816;8.662;2024-03-08T14:16:47;28.13;;;13.80;;
21168;SDS011;10742;51.816;8.662;2024-03-08T14:20:09;30.37;;;14.43;;
21168;SDS011;10742;51.816;8.662;2024-03-08T14:23:33;30.03;;;14.47;;
21168;SDS011;10742;51.816;8.662;2024-03-08T14:26:54;30.87;;;14.10;;
21168;SDS011;10742;51.816;8.662;2024-03-08T14:30:16;29.27;;;14.43;;
21168;SDS011;10742;51.816;8.662;2024-03-08T14:33:52;30.27;;;14.13;;
21168;SDS011;10742;51.816;8.662;2024-03-08T14:37:13;30.53;;;14.47;;
21168;SDS011;10742;51.816;8.662;2024-03-08T14:40:36;29.33;;;13.57;;
21168;SDS011;10742;51.816;8.662;2024-03-08T14:43:58;29.07;;;14.13;;
21168;SDS011;10742;51.816;8.662;2024-03-08T14:47:20;28.53;;;12.83;;
21168;SDS011;10742;51.816;8.662;2024-03-08T14:50:43;29.73;;;13.07;;
21168;SDS011;10742;51.816;8.662;2024-03-08T14:54:04;28.43;;;13.30;;
21168;SDS011;10742;51.816;8.662;2024-03-08T14:57:31;29.53;;;13.50;;
21168;SDS011;10742;51.816;8.662;2024-03-08T15:00:53;30.57;;;13.23;;
21168;SDS011;10742;51.816;8.662;2024-03-08T15:04:17;26.07;;;11.93;;
21168;SDS011;10742;51.816;8.662;2024-03-08T15:07:39;28.93;;;12.87;;
21168;SDS011;10742;51.816;8.662;2024-03-08T15:11:01;31.30;;;14.77;;
21168;SDS011;10742;51.816;8.662;2024-03-08T15:14:22;29.23;;;14.83;;
21168;SDS011;10742;51.816;8.662;2024-03-08T15:17:45;29.53;;;14.70;;
21168;SDS011;10742;51.816;8.662;2024-03-08T15:21:07;31.80;;;14.37;;
21168;SDS011;10742;51.816;8.662;2024-03-08T15:24:28;32.80;;;15.00;;
21168;SDS011;10742;51.816;8.662;2024-03-08T15:27:49;30.07;;;14.53;;
21168;SDS011;10742;51.816;8.662;2024-03-08T15:31:10;32.03;;;14.93;;
21168;SDS011;10742;51.816;8.662;2024-03-08T15:34:32;27.63;;;12.20;;
21168;SDS011;10742;51.816;8.662;2024-03-08T15:37:58;30.43;;;13.57;;
21168;SDS011;10742;51.816;8.662;2024-03-08T15:41:20;30.77;;;14.20;;
21168;SDS011;10742;51.816;8.662;2024-03-08T15:44:41;29.80;;;14.17;;
21168;SDS011;10742;51.816;8.662;2024-03-08T15:48:04;29.60;;;13.60;;
21168;SDS011;10742;51.816;8.662;2024-03-08T15:51:26;30.57;;;15.03;;
21168;SDS011;10742;51.816;8.662;2024-03-08T15:54:48;34.13;;;15.87;;
21168;SDS011;10742;51.816;8.662;2024-03-08T15:58:09;29.47;;;14.30;;
21168;SDS011;10742;51.816;8.662;2024-03-08T16:01:32;30.27;;;14.47;;
21168;SDS011;10742;51.816;8.662;2024-03-08T16:04:55;36.60;;;16.03;;
21168;SDS011;10742;51.816;8.662;2024-03-08T16:08:17;31.43;;;14.67;;
21168;SDS011;10742;51.816;8.662;2024-03-08T16:11:40;28.97;;;13.73;;
21168;SDS011;10742;51.816;8.662;2024-03-08T16:15:02;32.60;;;15.27;;
21168;SDS011;10742;51.816;8.662;2024-03-08T16:18:26;28.97;;;13.77;;
21168;SDS011;10742;51.816;8.662;2024-03-08T16:21:47;28.43;;;13.70;;
21168;SDS011;10742;51.816;8.662;2024-03-08T16:25:09;30.30;;;14.33;;
21168;SDS011;10742;51.816;8.662;2024-03-08T16:28:32;32.43;;;15.07;;
21168;SDS011;10742;51.816;8.662;2024-03-08T16:32:00;32.80;;;14.70;;
21168;SDS011;10742;51.816;8.662;2024-03-08T16:35:21;33.90;;;15.40;;
21168;SDS011;10742;51.816;8.662;2024-03-08T16:38:42;34.13;;;14.90;;
21168;SDS011;10742;51.816;8.662;2024-03-08T16:42:06;32.33;;;15.57;;
21168;SDS011;10742;51.816;8.662;2024-03-08T16:45:28;34.93;;;16.87;;
21168;SDS011;10742;51.816;8.662;2024-03-08T16:48:49;33.17;;;15.93;;
21168;SDS011;10742;51.816;8.662;2024-03-08T16:52:10;33.40;;;15.83;;
21168;SDS011;10742;51.816;8.662;2024-03-08T16:55:36;34.33;;;16.67;;
21168;SDS011;10742;51.816;8.662;2024-03-08T16:58:57;34.10;;;16.67;;
21168;SDS011;10742;51.816;8.662;2024-03-08T17:02:18;36.83;;;17.63;;
21168;SDS011;10742;51.816;8.662;2024-03-08T17:05:39;37.43;;;17.70;;
21168;SDS011;10742;51.816;8.662;2024-03-08T17:09:06;34.33;;;17.23;;
21168;SDS011;10742;51.816;8.662;2024-03-08T17:12:32;32.97;;;16.77;;
21168;SDS011;10742;51.816;8.662;2024-03-08T17:15:55;36.87;;;17.20;;
21168;SDS011;10742;51.816;8.662;2024-03-08T17:19:16;37.17;;;16.87;;
21168;SDS011;10742;51.816;8.662;2024-03-08T17:22:40;39.23;;;18.20;;
21168;SDS011;10742;51.816;8.662;2024-03-08T17:26:02;37.03;;;18.37;;
21168;SDS011;10742;51.816;8.662;2024-03-08T17:29:25;39.97;;;18.77;;
21168;SDS011;10742;51.816;8.662;2024-03-08T17:32:54;36.30;;;17.83;;
21168;SDS011;10742;51.816;8.662;2024-03-08T17:36:18;36.67;;;17.50;;
21168;SDS011;10742;51.816;8.662;2024-03-08T17:39:40;36.27;;;17.90;;
21168;SDS011;10742;51.816;8.662;2024-03-08T17:43:02;41.63;;;17.97;;
21168;SDS011;10742;51.816;8.662;2024-03-08T17:46:34;38.23;;;18.80;;
21168;SDS011;10742;51.816;8.662;2024-03-08T17:49:59;39.60;;;18.73;;
21168;SDS011;10742;51.816;8.662;2024-03-08T17:53:21;37.27;;;17.73;;
21168;SDS011;10742;51.816;8.662;2024-03-08T17:56:43;34.67;;;16.33;;
21168;SDS011;10742;51.816;8.662;2024-03-08T18:00:09;38.80;;;17.83;;
21168;SDS011;10742;51.816;8.662;2024-03-08T18:03:38;37.07;;;16.73;;
21168;SDS011;10742;51.816;8.662;2024-03-08T18:07:01;37.63;;;17.40;;
21168;SDS011;10742;51.816;8.662;2024-03-08T18:10:23;36.63;;;16.90;;
21168;SDS011;10742;51.816;8.662;2024-03-08T18:13:44;38.77;;;18.67;;
21168;SDS011;10742;51.816;8.662;2024-03-08T18:17:07;34.53;;;16.03;;
21168;SDS011;10742;51.816;8.662;2024-03-08T18:20:34;36.00;;;17.13;;
21168;SDS011;10742;51.816;8.662;2024-03-08T18:24:04;34.27;;;16.30;;
21168;SDS011;10742;51.816;8.662;2024-03-08T18:27:26;34.23;;;16.37;;
21168;SDS011;10742;51.816;8.662;2024-03-08T18:30:49;35.13;;;15.97;;
21168;SDS011;10742;51.816;8.662;2024-03-08T18:34:12;37.53;;;18.03;;
21168;SDS011;10742;51.816;8.662;2024-03-08T18:37:33;32.80;;;16.80;;
21168;SDS011;10742;51.816;8.662;2024-03-08T18:40:55;37.63;;;18.13;;
21168;SDS011;10742;51.816;8.662;2024-03-08T18:44:16;32.90;;;15.57;;
21168;SDS011;10742;51.816;8.662;2024-03-08T18:47:49;33.80;;;16.23;;
21168;SDS011;10742;51.816;8.662;2024-03-08T18:51:11;33.90;;;15.70;;
21168;SDS011;10742;51.816;8.662;2024-03-08T18:54:37;35.57;;;16.13;;
21168;SDS011;10742;51.816;8.662;2024-03-08T18:57:58;36.70;;;15.93;;
21168;SDS011;10742;51.816;8.662;2024-03-08T19:01:22;35.87;;;16.07;;
21168;SDS011;10742;51.816;8.662;2024-03-08T19:04:47;37.03;;;16.97;;
21168;SDS011;10742;51.816;8.662;2024-03-08T19:08:11;35.33;;;15.97;;
21168;SDS011;10742;51.816;8.662;2024-03-08T19:11:38;35.57;;;16.00;;
21168;SDS011;10742;51.816;8.662;2024-03-08T19:15:01;34.77;;;16.07;;
21168;SDS011;10742;51.816;8.662;2024-03-08T19:18:29;32.47;;;15.57;;
21168;SDS011;10742;51.816;8.662;2024-03-08T19:21:51;35.33;;;16.80;;
21168;SDS011;10742;51.816;8.662;2024-03-08T19:25:16;37.20;;;16.53;;
21168;SDS011;10742;51.816;8.662;2024-03-08T19:28:38;34.53;;;16.17;;
21168;SDS011;10742;51.816;8.662;2024-03-08T19:32:00;34.00;;;16.07;;
21168;SDS011;10742;51.816;8.662;2024-03-08T19:35:22;35.27;;;16.73;;
21168;SDS011;10742;51.816;8.662;2024-03-08T19:38:44;38.30;;;17.33;;
21168;SDS011;10742;51.816;8.662;2024-03-08T19:42:06;35.87;;;17.43;;
21168;SDS011;10742;51.816;8.662;2024-03-08T19:45:30;38.83;;;17.83;;
21168;SDS011;10742;51.816;8.662;2024-03-08T19:48:55;38.10;;;17.77;;
21168;SDS011;10742;51.816;8.662;2024-03-08T19:52:17;35.57;;;17.00;;